Time;durP1;ratioP1;P1;durP2;ratioP2;P2;SDS_P1;SDS_P2;PMS_P1;PMS_P2;Temp;Humidity;BMP_temperature;BMP_pressure;BME280_temperature;BME280_humidity;BME280_pressure;Samples;Min_cycle;Max_cycle;Signal;HPM_P1;HPM_P2
2021/09/12 00:01:43;;;;;;;20.07;9.97;;;;;;;;;;5074764;28;20232;-72
2021/09/12 00:04:09;;;;;;;19.37;10.53;;;;;;;;;;5075215;28;20265;-72
2021/09/12 00:06:36;;;;;;;17.00;11.27;;;;;;;;;;5074628;28;20220;-72
2021/09/12 00:09:03;;;;;;;19.60;11.20;;;;;;;;;;5075724;28;20270;-72
2021/09/12 00:11:29;;;;;;;20.80;12.43;;;;;;;;;;5075385;28;20285;-71
2021/09/12 00:13:57;;;;;;;18.13;11.67;;;;;;;;;;5073384;28;20241;-72
2021/09/12 00:16:23;;;;;;;19.63;11.63;;;;;;;;;;5076488;28;20223;-71
2021/09/12 00:18:49;;;;;;;16.70;11.77;;;;;;;;;;5073266;28;20215;-72
2021/09/12 00:21:16;;;;;;;20.73;12.93;;;;;;;;;;5075104;28;20668;-72
2021/09/12 00:23:43;;;;;;;26.23;14.33;;;;;;;;;;5074951;28;20282;-71
2021/09/12 00:26:09;;;;;;;21.20;14.33;;;;;;;;;;5075458;28;20253;-72
2021/09/12 00:28:35;;;;;;;23.03;14.53;;;;;;;;;;5074178;28;20219;-72
2021/09/12 00:31:03;;;;;;;23.83;14.53;;;;;;;;;;5072048;28;20234;-72
2021/09/12 00:33:31;;;;;;;22.80;15.10;;;;;;;;;;5077345;28;20306;-72
2021/09/12 00:35:58;;;;;;;24.40;14.57;;;;;;;;;;5079554;28;20258;-72
2021/09/12 00:38:24;;;;;;;24.97;13.53;;;;;;;;;;5080077;28;20683;-72
2021/09/12 00:40:51;;;;;;;23.37;14.43;;;;;;;;;;5077590;28;20212;-72
2021/09/12 00:43:17;;;;;;;22.60;14.07;;;;;;;;;;5079434;28;20353;-72
2021/09/12 00:45:43;;;;;;;24.67;13.47;;;;;;;;;;5080163;28;20266;-72
2021/09/12 00:48:11;;;;;;;19.63;12.53;;;;;;;;;;5078113;28;20275;-72
2021/09/12 00:50:38;;;;;;;20.53;13.03;;;;;;;;;;5077321;28;20298;-71
2021/09/12 00:53:05;;;;;;;23.60;12.07;;;;;;;;;;5079602;28;20252;-72
2021/09/12 00:55:32;;;;;;;19.87;11.53;;;;;;;;;;5079786;28;20263;-71
2021/09/12 00:58:00;;;;;;;18.30;11.03;;;;;;;;;;5075439;28;20268;-71
2021/09/12 01:00:27;;;;;;;20.47;11.40;;;;;;;;;;5074431;28;20245;-71
2021/09/12 01:02:53;;;;;;;19.27;10.20;;;;;;;;;;5078163;28;20233;-71
2021/09/12 01:05:21;;;;;;;17.30;10.33;;;;;;;;;;5077916;28;20224;-71
2021/09/12 01:07:47;;;;;;;18.10;9.77;;;;;;;;;;5077578;28;20221;-71
2021/09/12 01:10:14;;;;;;;15.07;9.73;;;;;;;;;;5078417;28;20228;-71
2021/09/12 01:12:41;;;;;;;19.23;9.63;;;;;;;;;;5078725;28;20256;-71
2021/09/12 01:15:08;;;;;;;16.03;8.60;;;;;;;;;;5079079;28;20212;-71
2021/09/12 01:17:35;;;;;;;16.07;8.80;;;;;;;;;;5076479;28;20235;-71
2021/09/12 01:20:02;;;;;;;13.07;8.13;;;;;;;;;;5078715;28;20217;-71
2021/09/12 01:22:30;;;;;;;20.33;8.37;;;;;;;;;;5077186;28;20257;-71
2021/09/12 01:24:57;;;;;;;16.27;8.67;;;;;;;;;;5079810;28;20608;-71
2021/09/12 01:27:24;;;;;;;15.83;8.67;;;;;;;;;;5078779;28;20296;-71
2021/09/12 01:29:51;;;;;;;13.30;8.17;;;;;;;;;;5078567;28;20213;-71
2021/09/12 01:32:17;;;;;;;15.27;8.60;;;;;;;;;;5077034;28;20235;-71
2021/09/12 01:34:43;;;;;;;15.37;8.07;;;;;;;;;;5078356;28;20732;-72
2021/09/12 01:37:10;;;;;;;15.03;8.87;;;;;;;;;;5075788;28;20298;-72
2021/09/12 01:39:36;;;;;;;17.37;8.73;;;;;;;;;;5075836;28;20206;-72
2021/09/12 01:42:04;;;;;;;15.53;7.67;;;;;;;;;;5078095;28;20216;-71
2021/09/12 01:44:31;;;;;;;13.60;8.53;;;;;;;;;;5076474;28;20215;-71
2021/09/12 01:46:57;;;;;;;15.80;8.00;;;;;;;;;;5077952;28;20231;-71
2021/09/12 01:49:24;;;;;;;15.73;8.50;;;;;;;;;;5076459;28;20658;-71
2021/09/12 01:51:51;;;;;;;15.37;8.37;;;;;;;;;;5077927;28;20246;-71
2021/09/12 01:54:17;;;;;;;14.93;8.07;;;;;;;;;;5077635;28;20276;-71
2021/09/12 01:56:44;;;;;;;13.83;8.00;;;;;;;;;;5076569;28;20218;-71
2021/09/12 01:59:12;;;;;;;14.43;8.27;;;;;;;;;;5075310;28;20221;-71
2021/09/12 02:01:38;;;;;;;18.40;8.30;;;;;;;;;;5058553;28;20231;-71
2021/09/12 02:04:05;;;;;;;17.10;9.03;;;;;;;;;;5057651;28;20780;-71
2021/09/12 02:06:31;;;;;;;15.40;9.20;;;;;;;;;;5056507;28;20213;-71
2021/09/12 02:08:57;;;;;;;14.23;7.97;;;;;;;;;;5057638;28;20250;-71
2021/09/12 02:11:24;;;;;;;15.30;9.63;;;;;;;;;;5056499;28;20234;-71
2021/09/12 02:13:50;;;;;;;16.47;8.70;;;;;;;;;;5058034;28;20214;-71
2021/09/12 02:16:18;;;;;;;20.40;8.90;;;;;;;;;;5058404;28;20220;-71
2021/09/12 02:18:44;;;;;;;13.27;8.83;;;;;;;;;;5057022;28;20272;-71
2021/09/12 02:21:11;;;;;;;19.40;9.40;;;;;;;;;;5056920;28;20567;-71
2021/09/12 02:23:37;;;;;;;22.20;9.83;;;;;;;;;;5058744;28;20219;-71
2021/09/12 02:26:03;;;;;;;18.80;9.33;;;;;;;;;;5056653;28;20639;-71
2021/09/12 02:28:30;;;;;;;18.33;9.83;;;;;;;;;;5056335;28;20651;-71
2021/09/12 02:30:56;;;;;;;14.13;9.90;;;;;;;;;;5058232;28;20569;-71
2021/09/12 02:33:24;;;;;;;17.60;9.87;;;;;;;;;;5055861;28;20291;-71
2021/09/12 02:35:50;;;;;;;19.53;10.27;;;;;;;;;;5055463;28;20214;-71
2021/09/12 02:38:17;;;;;;;18.33;9.77;;;;;;;;;;5055947;28;20291;-71
2021/09/12 02:40:43;;;;;;;19.43;10.00;;;;;;;;;;5054060;28;20224;-71
2021/09/12 02:43:10;;;;;;;17.33;9.73;;;;;;;;;;5055735;28;20263;-71
2021/09/12 02:45:37;;;;;;;21.17;10.10;;;;;;;;;;5056346;28;20210;-71
2021/09/12 02:48:04;;;;;;;16.33;10.00;;;;;;;;;;5057403;28;20231;-71
2021/09/12 02:50:32;;;;;;;22.73;10.23;;;;;;;;;;5057040;28;20727;-71
2021/09/12 02:52:58;;;;;;;21.13;10.77;;;;;;;;;;5055529;28;20219;-71
2021/09/12 02:55:25;;;;;;;14.90;10.10;;;;;;;;;;5054627;28;20270;-71
2021/09/12 02:57:51;;;;;;;20.70;11.30;;;;;;;;;;5057521;28;20618;-71
2021/09/12 03:00:18;;;;;;;16.47;10.53;;;;;;;;;;5064443;28;20294;-71
2021/09/12 03:02:45;;;;;;;20.93;10.67;;;;;;;;;;5076195;28;20233;-71
2021/09/12 03:05:11;;;;;;;18.03;10.77;;;;;;;;;;5075371;28;20211;-71
2021/09/12 03:07:39;;;;;;;20.43;11.47;;;;;;;;;;5078688;28;20262;-71
2021/09/12 03:10:06;;;;;;;18.80;10.37;;;;;;;;;;5076722;28;20214;-71
2021/09/12 03:12:32;;;;;;;23.70;11.50;;;;;;;;;;5075597;28;20277;-71
2021/09/12 03:14:59;;;;;;;15.73;11.23;;;;;;;;;;5076681;28;20673;-71
2021/09/12 03:17:25;;;;;;;19.33;10.83;;;;;;;;;;5075146;28;20294;-72
2021/09/12 03:19:52;;;;;;;14.63;10.87;;;;;;;;;;5074881;28;20275;-71
2021/09/12 03:22:18;;;;;;;21.87;11.77;;;;;;;;;;5077068;28;20265;-71
2021/09/12 03:24:46;;;;;;;18.53;12.00;;;;;;;;;;5076991;28;20214;-71
2021/09/12 03:27:12;;;;;;;18.00;11.30;;;;;;;;;;5075387;28;20209;-71
2021/09/12 03:29:39;;;;;;;18.13;11.67;;;;;;;;;;5075258;28;20206;-71
2021/09/12 03:32:06;;;;;;;18.10;11.17;;;;;;;;;;5076377;28;20718;-71
2021/09/12 03:34:32;;;;;;;17.27;10.67;;;;;;;;;;5075435;28;20278;-71
2021/09/12 03:36:59;;;;;;;21.13;11.40;;;;;;;;;;5074993;28;20222;-71
2021/09/12 03:39:25;;;;;;;19.33;12.00;;;;;;;;;;5073616;28;20606;-71
2021/09/12 03:41:53;;;;;;;20.17;11.03;;;;;;;;;;5073706;28;20202;-71
2021/09/12 03:44:19;;;;;;;18.07;11.40;;;;;;;;;;5073609;28;20214;-71
2021/09/12 03:46:46;;;;;;;17.30;11.23;;;;;;;;;;5077452;28;20290;-71
2021/09/12 03:49:12;;;;;;;23.47;11.83;;;;;;;;;;5075604;28;20833;-71
2021/09/12 03:51:39;;;;;;;19.33;11.10;;;;;;;;;;5075989;28;20560;-71
2021/09/12 03:54:05;;;;;;;18.90;12.03;;;;;;;;;;5074699;28;20303;-71
2021/09/12 03:56:31;;;;;;;22.50;12.77;;;;;;;;;;5073725;28;20835;-71
2021/09/12 03:58:59;;;;;;;18.97;12.30;;;;;;;;;;5073434;28;20217;-71
2021/09/12 04:01:25;;;;;;;18.00;11.30;;;;;;;;;;5072226;28;20234;-71
2021/09/12 04:03:52;;;;;;;25.37;13.70;;;;;;;;;;5075793;28;20260;-71
2021/09/12 04:06:19;;;;;;;27.23;13.13;;;;;;;;;;5074750;28;20275;-71
2021/09/12 04:08:46;;;;;;;25.00;12.60;;;;;;;;;;5074707;28;20377;-71
2021/09/12 04:11:12;;;;;;;20.17;12.30;;;;;;;;;;5076003;28;20216;-71
2021/09/12 04:13:38;;;;;;;18.00;12.13;;;;;;;;;;5074460;28;20209;-71
2021/09/12 04:16:06;;;;;;;20.20;12.13;;;;;;;;;;5075373;28;20263;-71
2021/09/12 04:18:33;;;;;;;19.27;12.20;;;;;;;;;;5074079;28;20291;-71
2021/09/12 04:20:59;;;;;;;19.77;12.57;;;;;;;;;;5072825;28;20216;-71
2021/09/12 04:23:25;;;;;;;19.23;12.00;;;;;;;;;;5073546;28;20214;-71
2021/09/12 04:25:52;;;;;;;20.47;11.67;;;;;;;;;;5073818;28;20213;-71
2021/09/12 04:28:18;;;;;;;21.67;12.80;;;;;;;;;;5073950;28;20259;-71
2021/09/12 04:30:44;;;;;;;18.15;12.40;;;;;;;;;;5072465;28;21226;-71
2021/09/12 04:33:12;;;;;;;20.13;12.60;;;;;;;;;;5075764;28;20237;-71
2021/09/12 04:35:38;;;;;;;20.70;12.50;;;;;;;;;;5076091;28;20262;-71
2021/09/12 04:38:05;;;;;;;22.30;13.20;;;;;;;;;;5074887;28;20287;-71
2021/09/12 04:40:31;;;;;;;16.73;11.80;;;;;;;;;;5075789;28;20946;-71
2021/09/12 04:42:58;;;;;;;20.77;12.70;;;;;;;;;;5075201;28;20213;-71
2021/09/12 04:45:24;;;;;;;19.90;12.50;;;;;;;;;;5075310;28;20213;-71
2021/09/12 04:47:50;;;;;;;18.63;12.50;;;;;;;;;;5072250;28;20226;-71
2021/09/12 04:50:18;;;;;;;18.57;11.90;;;;;;;;;;5073294;28;20275;-71
2021/09/12 04:52:47;;;;;;;21.53;12.93;;;;;;;;;;5074555;28;20307;-71
2021/09/12 04:55:13;;;;;;;17.00;11.50;;;;;;;;;;5075487;28;20210;-71
2021/09/12 04:57:39;;;;;;;18.83;12.60;;;;;;;;;;5074228;28;20212;-71
2021/09/12 05:00:08;;;;;;;24.77;13.33;;;;;;;;;;5074643;28;20290;-71
2021/09/12 05:02:34;;;;;;;21.90;13.20;;;;;;;;;;5072006;28;20403;-71
2021/09/12 05:05:00;;;;;;;21.40;12.60;;;;;;;;;;5072425;28;20247;-71
2021/09/12 05:07:28;;;;;;;21.10;13.13;;;;;;;;;;5072703;28;20214;-71
2021/09/12 05:09:54;;;;;;;23.30;13.23;;;;;;;;;;5070620;28;20972;-71
2021/09/12 05:12:21;;;;;;;23.77;13.77;;;;;;;;;;5069951;28;20240;-71
2021/09/12 05:14:47;;;;;;;27.43;13.77;;;;;;;;;;5073228;28;20275;-71
2021/09/12 05:17:14;;;;;;;18.50;13.73;;;;;;;;;;5076145;28;20725;-71
2021/09/12 05:19:40;;;;;;;21.63;14.33;;;;;;;;;;5076442;28;20229;-71
2021/09/12 05:22:06;;;;;;;22.90;13.93;;;;;;;;;;5077309;28;20819;-71
2021/09/12 05:24:34;;;;;;;20.23;14.27;;;;;;;;;;5077382;28;20217;-71
2021/09/12 05:27:00;;;;;;;24.97;14.77;;;;;;;;;;5075290;28;20721;-71
2021/09/12 05:29:27;;;;;;;21.47;13.93;;;;;;;;;;5075018;28;20304;-71
2021/09/12 05:31:53;;;;;;;29.33;15.10;;;;;;;;;;5073457;28;20283;-71
2021/09/12 05:34:20;;;;;;;22.43;14.80;;;;;;;;;;5074327;28;20218;-71
2021/09/12 05:36:46;;;;;;;25.10;14.73;;;;;;;;;;5074658;28;20247;-71
2021/09/12 05:39:12;;;;;;;25.93;14.23;;;;;;;;;;5076324;28;20283;-71
2021/09/12 05:41:40;;;;;;;25.17;14.10;;;;;;;;;;5077181;28;20299;-71
2021/09/12 05:44:07;;;;;;;23.53;15.10;;;;;;;;;;5077624;28;20209;-71
2021/09/12 05:46:35;;;;;;;25.40;15.07;;;;;;;;;;5076514;28;20233;-71
2021/09/12 05:49:02;;;;;;;25.23;14.87;;;;;;;;;;5074747;28;21012;-71
2021/09/12 05:51:28;;;;;;;27.73;15.60;;;;;;;;;;5074906;28;20672;-71
2021/09/12 05:53:54;;;;;;;31.57;15.40;;;;;;;;;;5077598;28;20202;-73
2021/09/12 05:56:21;;;;;;;32.93;16.40;;;;;;;;;;5075464;28;20258;-71
2021/09/12 05:58:49;;;;;;;28.97;16.17;;;;;;;;;;5077337;28;20296;-71
2021/09/12 06:01:15;;;;;;;31.90;15.77;;;;;;;;;;5075312;28;20406;-71
2021/09/12 06:03:42;;;;;;;32.10;17.13;;;;;;;;;;5075012;28;20300;-71
2021/09/12 06:06:08;;;;;;;36.53;16.47;;;;;;;;;;5076018;28;20924;-73
2021/09/12 06:08:35;;;;;;;31.73;16.90;;;;;;;;;;5076437;28;20208;-71
2021/09/12 06:11:01;;;;;;;33.10;17.20;;;;;;;;;;5075653;28;20210;-73
2021/09/12 06:13:28;;;;;;;35.43;17.77;;;;;;;;;;5074167;28;20236;-71
2021/09/12 06:15:55;;;;;;;32.93;17.87;;;;;;;;;;5076303;28;20221;-71
2021/09/12 06:18:22;;;;;;;40.03;18.53;;;;;;;;;;5075309;28;20696;-71
2021/09/12 06:20:48;;;;;;;33.97;18.73;;;;;;;;;;5074008;28;20286;-71
2021/09/12 06:23:14;;;;;;;32.53;18.63;;;;;;;;;;5071984;28;20212;-71
2021/09/12 06:25:41;;;;;;;31.67;17.87;;;;;;;;;;5074542;28;20209;-71
2021/09/12 06:28:07;;;;;;;37.67;19.60;;;;;;;;;;5077237;28;21258;-71
2021/09/12 06:30:34;;;;;;;34.23;19.57;;;;;;;;;;5074241;28;20210;-71
2021/09/12 06:33:01;;;;;;;37.67;21.47;;;;;;;;;;5075669;28;20700;-71
2021/09/12 06:35:28;;;;;;;45.07;24.10;;;;;;;;;;5072146;28;20215;-71
2021/09/12 06:37:54;;;;;;;45.93;24.03;;;;;;;;;;5075342;28;20286;-71
2021/09/12 06:40:23;;;;;;;45.70;25.03;;;;;;;;;;5073602;28;20218;-70
2021/09/12 06:42:50;;;;;;;52.83;27.93;;;;;;;;;;5074719;28;20304;-71
2021/09/12 06:45:17;;;;;;;51.93;27.87;;;;;;;;;;5074256;28;20236;-71
2021/09/12 06:47:43;;;;;;;55.97;28.17;;;;;;;;;;5075357;28;20739;-71
2021/09/12 06:50:11;;;;;;;53.43;27.07;;;;;;;;;;5073536;28;20209;-71
2021/09/12 06:52:37;;;;;;;53.83;27.07;;;;;;;;;;5073784;28;20777;-71
2021/09/12 06:55:05;;;;;;;50.53;26.17;;;;;;;;;;5073523;28;20617;-71
2021/09/12 06:57:31;;;;;;;53.43;26.23;;;;;;;;;;5075356;28;20963;-71
2021/09/12 06:59:57;;;;;;;53.67;27.77;;;;;;;;;;5074667;28;20593;-71
2021/09/12 07:02:24;;;;;;;66.60;30.47;;;;;;;;;;5071148;28;20670;-71
2021/09/12 07:04:50;;;;;;;62.83;30.67;;;;;;;;;;5073938;28;20216;-71
2021/09/12 07:07:18;;;;;;;52.97;28.07;;;;;;;;;;5073355;28;20210;-74
2021/09/12 07:09:44;;;;;;;57.43;28.73;;;;;;;;;;5073779;28;20217;-71
2021/09/12 07:12:11;;;;;;;56.73;28.37;;;;;;;;;;5073340;28;20237;-71
2021/09/12 07:14:37;;;;;;;57.90;30.33;;;;;;;;;;5073302;28;20299;-71
2021/09/12 07:17:04;;;;;;;65.63;29.77;;;;;;;;;;5075602;28;20247;-72
2021/09/12 07:19:30;;;;;;;64.27;30.10;;;;;;;;;;5073134;28;20222;-72
2021/09/12 07:21:57;;;;;;;56.53;28.20;;;;;;;;;;5071537;28;20214;-72
2021/09/12 07:24:24;;;;;;;59.60;30.70;;;;;;;;;;5073880;28;20213;-72
2021/09/12 07:26:51;;;;;;;62.07;29.10;;;;;;;;;;5072062;28;21029;-72
2021/09/12 07:29:17;;;;;;;59.27;29.53;;;;;;;;;;5073433;28;20616;-71
2021/09/12 07:31:43;;;;;;;58.60;29.80;;;;;;;;;;5073048;28;20223;-72
2021/09/12 07:34:10;;;;;;;58.37;29.60;;;;;;;;;;5072766;28;20657;-72
2021/09/12 07:36:36;;;;;;;54.17;29.57;;;;;;;;;;5073866;28;20280;-73
2021/09/12 07:39:03;;;;;;;51.47;28.93;;;;;;;;;;5072490;28;20213;-72
2021/09/12 07:41:30;;;;;;;49.40;27.60;;;;;;;;;;5072537;28;20632;-72
2021/09/12 07:43:57;;;;;;;51.30;27.53;;;;;;;;;;5074002;28;20245;-73
2021/09/12 07:46:23;;;;;;;48.80;25.03;;;;;;;;;;5070231;28;20682;-72
2021/09/12 07:48:50;;;;;;;53.47;26.73;;;;;;;;;;5075049;28;20245;-72
2021/09/12 07:51:16;;;;;;;47.80;26.10;;;;;;;;;;5073349;28;20635;-72
2021/09/12 07:53:43;;;;;;;42.17;25.70;;;;;;;;;;5071684;28;20227;-72
2021/09/12 07:56:09;;;;;;;44.53;24.43;;;;;;;;;;5073113;28;20315;-72
2021/09/12 07:58:37;;;;;;;43.63;24.63;;;;;;;;;;5071953;28;20215;-72
2021/09/12 08:01:03;;;;;;;42.93;26.03;;;;;;;;;;5071973;28;20339;-72
2021/09/12 08:03:31;;;;;;;42.00;25.17;;;;;;;;;;5070544;28;20564;-72
2021/09/12 08:05:57;;;;;;;42.53;24.90;;;;;;;;;;5073366;28;20626;-72
2021/09/12 08:08:24;;;;;;;40.20;24.13;;;;;;;;;;5070496;28;20258;-72
2021/09/12 08:10:50;;;;;;;38.63;25.53;;;;;;;;;;5073237;28;20230;-72
2021/09/12 08:13:16;;;;;;;43.83;26.77;;;;;;;;;;5071456;28;20240;-72
2021/09/12 08:15:44;;;;;;;35.53;24.83;;;;;;;;;;5073375;28;20240;-72
2021/09/12 08:18:11;;;;;;;36.93;23.73;;;;;;;;;;5070855;28;20234;-72
2021/09/12 08:20:37;;;;;;;42.60;25.27;;;;;;;;;;5073289;28;20224;-72
2021/09/12 08:23:03;;;;;;;37.13;24.73;;;;;;;;;;5073280;28;20264;-72
2021/09/12 08:25:30;;;;;;;38.97;25.07;;;;;;;;;;5072775;28;20217;-72
2021/09/12 08:27:56;;;;;;;36.43;24.90;;;;;;;;;;5072917;28;20219;-72
2021/09/12 08:30:23;;;;;;;44.77;26.73;;;;;;;;;;5071967;28;20212;-72
2021/09/12 08:32:50;;;;;;;36.60;25.47;;;;;;;;;;5073143;28;20234;-72
2021/09/12 08:35:17;;;;;;;38.83;26.13;;;;;;;;;;5074403;28;20791;-72
2021/09/12 08:37:43;;;;;;;34.63;24.00;;;;;;;;;;5072052;28;20777;-71
2021/09/12 08:40:10;;;;;;;35.63;25.23;;;;;;;;;;5072140;28;20213;-72
2021/09/12 08:42:37;;;;;;;35.53;24.93;;;;;;;;;;5073519;28;20655;-71
2021/09/12 08:45:05;;;;;;;35.87;24.40;;;;;;;;;;5070823;28;20241;-71
2021/09/12 08:47:32;;;;;;;39.20;24.57;;;;;;;;;;5072159;28;20236;-72
2021/09/12 08:50:00;;;;;;;41.30;26.53;;;;;;;;;;5072690;28;20699;-72
2021/09/12 08:52:27;;;;;;;34.83;23.93;;;;;;;;;;5074634;28;20216;-71
2021/09/12 08:54:53;;;;;;;35.00;24.20;;;;;;;;;;5075611;28;20228;-71
2021/09/12 08:57:20;;;;;;;39.60;25.13;;;;;;;;;;5075631;28;20712;-70
2021/09/12 08:59:49;;;;;;;34.80;24.90;;;;;;;;;;5077131;28;20256;-70
2021/09/12 09:02:16;;;;;;;35.17;24.63;;;;;;;;;;5077853;28;20266;-70
2021/09/12 09:04:43;;;;;;;42.27;26.57;;;;;;;;;;5077225;28;20269;-73
2021/09/12 09:07:12;;;;;;;40.80;26.63;;;;;;;;;;5076768;28;20308;-73
2021/09/12 09:09:40;;;;;;;40.47;24.63;;;;;;;;;;5075954;28;20217;-73
2021/09/12 09:12:26;;;;;;;33.77;25.13;;;;;;;;;;5076121;28;20232;-70
2021/09/12 09:15:05;;;;;;;38.00;25.77;;;;;;;;;;5075138;28;20636;-73
2021/09/12 09:17:35;;;;;;;38.47;24.80;;;;;;;;;;5077003;28;20231;-73
2021/09/12 09:20:02;;;;;;;39.67;25.83;;;;;;;;;;5074111;28;20216;-73
2021/09/12 09:22:31;;;;;;;37.60;26.60;;;;;;;;;;5075441;28;20219;-73
2021/09/12 09:25:06;;;;;;;43.53;27.60;;;;;;;;;;5077447;28;20672;-73
2021/09/12 09:27:50;;;;;;;37.53;27.83;;;;;;;;;;5077881;28;20212;-73
2021/09/12 09:30:17;;;;;;;44.57;29.50;;;;;;;;;;5076445;28;20241;-73
2021/09/12 09:32:43;;;;;;;44.43;30.17;;;;;;;;;;5075388;28;20228;-73
2021/09/12 09:35:13;;;;;;;42.90;29.47;;;;;;;;;;5076081;28;20365;-73
2021/09/12 09:37:48;;;;;;;43.97;32.20;;;;;;;;;;5076152;28;20249;-73
2021/09/12 09:40:15;;;;;;;50.00;32.77;;;;;;;;;;5074424;28;20633;-73
2021/09/12 09:42:43;;;;;;;45.77;31.03;;;;;;;;;;5075160;28;20216;-73
2021/09/12 09:45:11;;;;;;;41.30;32.37;;;;;;;;;;5074547;28;21024;-73
2021/09/12 09:47:39;;;;;;;47.97;33.80;;;;;;;;;;5074603;28;20236;-73
2021/09/12 09:50:09;;;;;;;49.53;32.10;;;;;;;;;;5076292;28;20213;-73
2021/09/12 09:52:36;;;;;;;42.20;32.07;;;;;;;;;;5075475;28;20220;-73
2021/09/12 09:55:06;;;;;;;45.37;32.47;;;;;;;;;;5075821;28;20236;-73
2021/09/12 09:57:34;;;;;;;42.77;32.27;;;;;;;;;;5077402;28;20553;-71
2021/09/12 10:00:01;;;;;;;45.97;32.80;;;;;;;;;;5074756;28;20237;-70
2021/09/12 10:02:28;;;;;;;46.03;33.50;;;;;;;;;;5074491;28;20244;-73
2021/09/12 10:04:54;;;;;;;41.50;32.40;;;;;;;;;;5072333;28;20212;-73
2021/09/12 10:07:21;;;;;;;43.63;32.43;;;;;;;;;;5075429;28;20221;-73
2021/09/12 10:09:47;;;;;;;37.93;29.53;;;;;;;;;;5076888;28;20217;-73
2021/09/12 10:12:16;;;;;;;35.87;30.20;;;;;;;;;;5074250;28;20213;-73
2021/09/12 10:14:49;;;;;;;38.87;31.73;;;;;;;;;;5075990;28;20245;-73
2021/09/12 10:17:20;;;;;;;41.63;31.13;;;;;;;;;;5074255;28;20855;-73
2021/09/12 10:19:46;;;;;;;37.77;28.97;;;;;;;;;;5074779;28;20213;-73
2021/09/12 10:22:14;;;;;;;42.07;31.07;;;;;;;;;;5077246;28;21137;-73
2021/09/12 10:25:10;;;;;;;31.63;27.87;;;;;;;;;;5073401;28;20209;-73
2021/09/12 10:27:39;;;;;;;40.13;27.87;;;;;;;;;;5076440;28;20225;-73
2021/09/12 10:30:27;;;;;;;34.43;27.40;;;;;;;;;;5074803;28;20588;-73
2021/09/12 10:33:16;;;;;;;41.50;29.53;;;;;;;;;;5073917;28;20241;-73
2021/09/12 10:35:51;;;;;;;33.40;27.50;;;;;;;;;;5075054;28;20213;-73
2021/09/12 10:38:25;;;;;;;33.60;28.77;;;;;;;;;;5075140;28;20780;-73
2021/09/12 10:41:17;;;;;;;36.97;29.33;;;;;;;;;;5073197;28;20256;-73
2021/09/12 10:43:48;;;;;;;34.93;28.37;;;;;;;;;;5074671;28;20250;-73
2021/09/12 10:46:23;;;;;;;35.00;28.43;;;;;;;;;;5074839;28;20736;-73
2021/09/12 10:49:12;;;;;;;37.27;27.50;;;;;;;;;;5074553;28;20213;-73
2021/09/12 10:51:43;;;;;;;33.57;27.40;;;;;;;;;;5077354;28;20269;-73
2021/09/12 10:54:10;;;;;;;35.03;27.17;;;;;;;;;;5074342;28;20257;-72
2021/09/12 10:56:38;;;;;;;33.37;27.50;;;;;;;;;;5075539;28;20728;-72
2021/09/12 10:59:10;;;;;;;36.17;29.60;;;;;;;;;;5073850;28;20221;-72
2021/09/12 11:01:40;;;;;;;33.87;27.20;;;;;;;;;;5073782;28;20240;-72
2021/09/12 11:04:07;;;;;;;19.70;15.63;;;;;;;;;;5072871;28;20216;-72
2021/09/12 11:06:35;;;;;;;14.53;12.90;;;;;;;;;;5073343;28;20235;-72
2021/09/12 11:09:04;;;;;;;16.63;12.70;;;;;;;;;;5071612;28;20295;-72
2021/09/12 11:11:30;;;;;;;20.53;15.07;;;;;;;;;;5073166;28;20263;-72
2021/09/12 11:13:58;;;;;;;14.53;12.40;;;;;;;;;;5072602;28;20361;-72
2021/09/12 11:16:28;;;;;;;14.87;13.40;;;;;;;;;;5072941;28;21102;-72
2021/09/12 11:18:56;;;;;;;19.20;13.80;;;;;;;;;;5072908;28;20206;-72
2021/09/12 11:21:32;;;;;;;16.97;13.80;;;;;;;;;;5070947;28;20224;-72
2021/09/12 11:24:01;;;;;;;20.03;15.43;;;;;;;;;;5072173;28;20216;-72
2021/09/12 11:26:29;;;;;;;12.20;11.00;;;;;;;;;;5073559;28;20218;-72
2021/09/12 11:29:04;;;;;;;12.67;11.37;;;;;;;;;;5073212;28;20270;-72
2021/09/12 11:31:34;;;;;;;12.53;10.47;;;;;;;;;;5071891;28;20219;-72
2021/09/12 11:34:00;;;;;;;15.50;11.67;;;;;;;;;;5070705;28;20233;-72
2021/09/12 11:36:27;;;;;;;16.23;10.73;;;;;;;;;;5070966;28;20225;-72
2021/09/12 11:38:56;;;;;;;13.23;9.83;;;;;;;;;;5071416;28;20637;-72
2021/09/12 11:41:23;;;;;;;8.00;6.77;;;;;;;;;;5072594;28;20212;-72
2021/09/12 11:43:54;;;;;;;8.70;6.77;;;;;;;;;;5072699;28;20198;-71
2021/09/12 11:46:21;;;;;;;9.23;7.67;;;;;;;;;;5074258;28;20212;-71
2021/09/12 11:48:55;;;;;;;8.60;7.63;;;;;;;;;;5073403;28;20607;-71
2021/09/12 11:51:30;;;;;;;12.10;7.63;;;;;;;;;;5073513;28;20832;-71
2021/09/12 11:54:17;;;;;;;8.80;6.37;;;;;;;;;;5070146;28;20287;-71
2021/09/12 11:56:44;;;;;;;8.43;5.90;;;;;;;;;;5071868;28;20206;-71
2021/09/12 11:59:15;;;;;;;7.57;6.07;;;;;;;;;;5073703;28;20206;-71
2021/09/12 12:01:42;;;;;;;5.67;4.80;;;;;;;;;;5071218;28;20282;-71
2021/09/12 12:04:11;;;;;;;5.57;3.87;;;;;;;;;;5072483;28;20236;-71
2021/09/12 12:06:37;;;;;;;4.77;3.57;;;;;;;;;;5071695;28;20648;-71
2021/09/12 12:09:06;;;;;;;6.70;3.53;;;;;;;;;;5071391;28;20214;-70
2021/09/12 12:11:33;;;;;;;5.70;3.27;;;;;;;;;;5070356;28;20267;-71
2021/09/12 12:13:59;;;;;;;4.83;3.03;;;;;;;;;;5071016;28;20240;-70
2021/09/12 12:16:26;;;;;;;3.30;2.40;;;;;;;;;;5071603;28;20214;-71
2021/09/12 12:19:01;;;;;;;3.33;2.30;;;;;;;;;;5073359;28;20596;-70
2021/09/12 12:21:31;;;;;;;1.50;1.33;;;;;;;;;;5069701;28;20633;-71
2021/09/12 12:23:58;;;;;;;3.73;1.60;;;;;;;;;;5071913;28;20609;-72
2021/09/12 12:26:28;;;;;;;2.97;1.47;;;;;;;;;;5071372;28;20208;-73
2021/09/12 12:29:01;;;;;;;2.40;1.80;;;;;;;;;;5073926;28;20214;-73
2021/09/12 12:31:27;;;;;;;3.17;1.60;;;;;;;;;;5075772;28;20262;-72
2021/09/12 12:33:54;;;;;;;2.50;1.57;;;;;;;;;;5076099;28;20369;-73
2021/09/12 12:36:22;;;;;;;3.43;1.67;;;;;;;;;;5075406;28;20213;-73
2021/09/12 12:38:50;;;;;;;3.63;1.83;;;;;;;;;;5076020;28;20209;-73
2021/09/12 12:41:19;;;;;;;2.23;1.87;;;;;;;;;;5075575;28;20215;-73
2021/09/12 12:43:46;;;;;;;4.77;1.33;;;;;;;;;;5075934;28;20215;-73
2021/09/12 12:46:13;;;;;;;3.17;1.40;;;;;;;;;;5079382;28;20202;-73
2021/09/12 12:48:42;;;;;;;2.30;1.30;;;;;;;;;;5077752;28;20629;-74
2021/09/12 12:51:12;;;;;;;3.30;1.67;;;;;;;;;;5078054;28;20723;-73
2021/09/12 12:53:41;;;;;;;3.00;1.53;;;;;;;;;;5076763;28;20220;-73
2021/09/12 12:56:11;;;;;;;9.03;1.80;;;;;;;;;;5076126;28;20234;-72
2021/09/12 12:58:38;;;;;;;4.83;1.97;;;;;;;;;;5075519;28;20217;-72
2021/09/12 13:01:06;;;;;;;5.63;2.17;;;;;;;;;;5074144;28;20238;-73
2021/09/12 13:03:33;;;;;;;2.37;1.63;;;;;;;;;;5074588;28;20259;-72
2021/09/12 13:06:01;;;;;;;2.33;1.70;;;;;;;;;;5077090;28;20533;-72
2021/09/12 13:08:28;;;;;;;3.77;2.23;;;;;;;;;;5074184;28;20890;-72
2021/09/12 13:10:55;;;;;;;2.90;1.67;;;;;;;;;;5074951;28;20736;-72
2021/09/12 13:13:22;;;;;;;1.73;1.13;;;;;;;;;;5075058;28;20630;-72
2021/09/12 13:15:50;;;;;;;2.63;1.50;;;;;;;;;;5078634;28;20275;-72
2021/09/12 13:18:17;;;;;;;1.80;1.20;;;;;;;;;;5074952;28;20218;-72
2021/09/12 13:20:44;;;;;;;2.20;1.30;;;;;;;;;;5073517;28;20289;-72
2021/09/12 13:23:11;;;;;;;3.13;1.83;;;;;;;;;;5074573;28;20251;-71
2021/09/12 13:25:37;;;;;;;1.57;1.00;;;;;;;;;;5074510;28;20246;-72
2021/09/12 13:28:05;;;;;;;1.57;1.10;;;;;;;;;;5075653;28;20215;-72
2021/09/12 13:30:34;;;;;;;3.10;1.30;;;;;;;;;;5075380;28;20600;-72
2021/09/12 13:33:01;;;;;;;4.07;1.80;;;;;;;;;;5076135;28;21167;-72
2021/09/12 13:35:28;;;;;;;2.30;1.33;;;;;;;;;;5073381;28;20234;-72
2021/09/12 13:37:55;;;;;;;3.00;1.90;;;;;;;;;;5075016;28;20567;-71
2021/09/12 13:40:21;;;;;;;3.57;2.17;;;;;;;;;;5073427;28;20210;-72
2021/09/12 13:42:48;;;;;;;3.40;2.40;;;;;;;;;;5073991;28;20202;-72
2021/09/12 13:45:15;;;;;;;3.73;2.80;;;;;;;;;;5073208;28;20205;-72
2021/09/12 13:47:44;;;;;;;7.07;2.90;;;;;;;;;;5075300;28;20225;-72
2021/09/12 13:50:12;;;;;;;4.33;2.70;;;;;;;;;;5075238;28;20217;-72
2021/09/12 13:52:39;;;;;;;5.73;2.50;;;;;;;;;;5074350;28;20205;-72
2021/09/12 13:55:07;;;;;;;4.03;2.07;;;;;;;;;;5076916;28;20289;-72
2021/09/12 13:57:33;;;;;;;4.50;2.23;;;;;;;;;;5074844;28;20267;-72
2021/09/12 14:00:00;;;;;;;4.27;2.07;;;;;;;;;;5075278;28;20263;-72
2021/09/12 14:02:26;;;;;;;4.47;2.10;;;;;;;;;;5073472;28;20220;-72
2021/09/12 14:04:54;;;;;;;2.83;2.43;;;;;;;;;;5072715;28;20201;-72
2021/09/12 14:07:21;;;;;;;3.87;2.00;;;;;;;;;;5075116;28;20214;-72
2021/09/12 14:09:47;;;;;;;2.50;1.70;;;;;;;;;;5074159;28;20304;-72
2021/09/12 14:12:14;;;;;;;6.13;2.23;;;;;;;;;;5074607;28;20299;-72
2021/09/12 14:14:40;;;;;;;5.80;2.00;;;;;;;;;;5074345;28;20241;-71
2021/09/12 14:17:07;;;;;;;4.37;1.70;;;;;;;;;;5072655;28;20793;-72
2021/09/12 14:19:33;;;;;;;3.80;1.80;;;;;;;;;;5072387;28;20270;-72
2021/09/12 14:22:01;;;;;;;4.60;2.00;;;;;;;;;;5074262;28;20244;-72
2021/09/12 14:24:27;;;;;;;2.60;1.43;;;;;;;;;;5074578;28;20220;-72
2021/09/12 14:26:53;;;;;;;4.17;1.70;;;;;;;;;;5072566;28;20214;-72